createdAt,value
2023-01-08T00:02:06.083Z,11.40
2023-01-08T00:04:39.995Z,11.30
2023-01-08T00:07:12.238Z,11.30
2023-01-08T00:09:41.217Z,11.40
2023-01-08T00:12:10.167Z,11.40
2023-01-08T00:14:37.621Z,11.40
2023-01-08T00:17:07.013Z,11.40
2023-01-08T00:19:37.270Z,11.50
2023-01-08T00:22:05.772Z,11.30
2023-01-08T00:24:36.004Z,11.60
2023-01-08T00:27:04.242Z,11.50
2023-01-08T00:29:32.763Z,11.50
2023-01-08T00:32:01.134Z,11.70
2023-01-08T00:37:11.538Z,11.60
2023-01-08T00:39:43.933Z,11.60
2023-01-08T00:42:15.901Z,11.60
2023-01-08T00:44:46.694Z,11.60
2023-01-08T00:47:15.074Z,11.60
2023-01-08T00:49:43.544Z,11.50
2023-01-08T00:52:12.540Z,11.60
2023-01-08T00:54:40.584Z,11.70
2023-01-08T00:57:10.984Z,11.70
2023-01-08T00:59:42.173Z,11.70
2023-01-08T01:02:15.334Z,11.70
2023-01-08T01:04:45.148Z,11.70
2023-01-08T01:07:16.730Z,11.60
2023-01-08T01:09:46.498Z,11.70
2023-01-08T01:12:16.501Z,11.70
2023-01-08T01:14:45.948Z,11.70
2023-01-08T01:17:13.733Z,11.70
2023-01-08T01:19:41.774Z,11.60
2023-01-08T01:22:12.187Z,11.70
2023-01-08T01:27:30.128Z,11.50
2023-01-08T01:30:02.368Z,11.60
2023-01-08T01:32:32.720Z,11.60
2023-01-08T01:35:02.878Z,11.50
2023-01-08T01:37:31.196Z,11.60
2023-01-08T01:40:03.161Z,11.60
2023-01-08T01:42:42.701Z,11.60
2023-01-08T01:45:24.829Z,11.80
2023-01-08T01:48:10.429Z,11.60
2023-01-08T01:50:53.747Z,11.60
2023-01-08T01:53:29.483Z,11.50
2023-01-08T01:55:58.140Z,11.50
2023-01-08T01:58:30.720Z,11.50
2023-01-08T02:01:03.953Z,11.40
2023-01-08T02:03:47.960Z,11.50
2023-01-08T02:06:27.347Z,11.50
2023-01-08T02:09:08.675Z,11.50
2023-01-08T02:11:55.571Z,11.40
2023-01-08T02:15:12.583Z,11.40
2023-01-08T02:18:03.326Z,11.50
2023-01-08T02:20:44.324Z,11.50
2023-01-08T02:23:34.663Z,11.50
2023-01-08T02:26:27.124Z,11.50
2023-01-08T02:28:57.326Z,11.40
2023-01-08T02:31:28.180Z,11.40
2023-01-08T02:33:55.893Z,11.40
2023-01-08T02:36:42.477Z,11.50
2023-01-08T02:39:39.872Z,11.40
2023-01-08T02:42:40.040Z,11.40
2023-01-08T02:45:52.408Z,11.40
2023-01-08T02:48:37.275Z,11.40
2023-01-08T02:54:10.142Z,11.40
2023-01-08T02:56:43.093Z,11.40
2023-01-08T02:59:17.192Z,11.40
2023-01-08T03:01:46.540Z,11.20
2023-01-08T03:04:19.551Z,11.30
2023-01-08T03:06:59.084Z,11.50
2023-01-08T03:09:27.840Z,11.30
2023-01-08T03:12:02.572Z,11.50
2023-01-08T03:14:37.862Z,11.40
2023-01-08T03:17:13.239Z,11.40
2023-01-08T03:19:44.608Z,11.40
2023-01-08T03:22:15.891Z,11.40
2023-01-08T03:24:52.705Z,11.50
2023-01-08T03:27:27.221Z,11.40
2023-01-08T03:29:57.011Z,11.50
2023-01-08T03:32:29.618Z,11.50
2023-01-08T03:35:00.315Z,11.50
2023-01-08T03:37:33.904Z,11.40
2023-01-08T03:40:31.530Z,11.40
2023-01-08T03:43:01.581Z,11.40
2023-01-08T03:45:32.765Z,11.20
2023-01-08T03:48:00.674Z,11.00
2023-01-08T03:50:29.980Z,10.70
2023-01-08T03:52:59.263Z,10.50
2023-01-08T03:55:29.725Z,10.40
2023-01-08T03:57:57.069Z,10.30
2023-01-08T04:00:24.544Z,10.10
2023-01-08T04:02:53.106Z,10.00
2023-01-08T04:05:23.823Z,9.80
2023-01-08T04:07:51.059Z,9.80
2023-01-08T04:10:20.120Z,9.80
2023-01-08T04:12:50.494Z,9.80
2023-01-08T04:15:19.020Z,9.80
2023-01-08T04:17:47.190Z,9.90
2023-01-08T04:20:14.336Z,10.00
2023-01-08T04:22:41.446Z,10.10
2023-01-08T04:25:08.707Z,10.00
2023-01-08T04:27:36.115Z,9.90
2023-01-08T04:30:04.053Z,9.70
2023-01-08T04:32:31.005Z,9.50
2023-01-08T04:34:57.974Z,9.40
2023-01-08T04:37:24.920Z,9.30
2023-01-08T04:39:52.170Z,9.40
2023-01-08T04:42:21.595Z,9.30
2023-01-08T04:44:48.798Z,9.10
2023-01-08T04:47:15.999Z,9.00
2023-01-08T04:49:43.073Z,8.90
2023-01-08T04:52:10.025Z,9.10
2023-01-08T04:54:37.664Z,8.90
2023-01-08T04:57:04.716Z,9.00
2023-01-08T04:59:31.992Z,8.90
2023-01-08T05:02:00.082Z,8.70
2023-01-08T05:04:27.815Z,8.70
2023-01-08T05:06:55.159Z,8.60
2023-01-08T05:09:23.357Z,8.60
2023-01-08T05:11:50.459Z,8.70
2023-01-08T05:14:17.496Z,8.70
2023-01-08T05:16:44.529Z,8.90
2023-01-08T05:19:14.025Z,8.80
2023-01-08T05:21:43.635Z,8.70
2023-01-08T05:24:11.241Z,8.70
2023-01-08T05:26:39.266Z,8.70
2023-01-08T05:29:08.773Z,8.70
2023-01-08T05:31:35.989Z,8.60
2023-01-08T05:34:03.574Z,8.60
2023-01-08T05:36:31.819Z,8.70
2023-01-08T05:39:02.370Z,8.60
2023-01-08T05:41:29.659Z,8.50
2023-01-08T05:43:56.694Z,8.40
2023-01-08T05:46:24.778Z,8.40
2023-01-08T05:48:52.002Z,8.70
2023-01-08T05:51:20.510Z,8.70
2023-01-08T05:53:49.918Z,8.70
2023-01-08T05:56:17.019Z,8.70
2023-01-08T05:58:49.718Z,8.70
2023-01-08T06:01:18.311Z,8.60
2023-01-08T06:03:50.084Z,8.60
2023-01-08T06:06:17.819Z,8.50
2023-01-08T06:08:45.229Z,8.50
2023-01-08T06:11:12.623Z,8.50
2023-01-08T06:13:44.472Z,8.40
2023-01-08T06:16:12.529Z,8.50
2023-01-08T06:18:41.014Z,8.60
2023-01-08T06:21:08.405Z,8.40
2023-01-08T06:23:35.900Z,8.40
2023-01-08T06:26:04.378Z,8.30
2023-01-08T06:28:33.745Z,8.20
2023-01-08T06:31:02.049Z,8.30
2023-01-08T06:33:30.005Z,8.20
2023-01-08T06:36:01.806Z,8.30
2023-01-08T06:38:32.355Z,8.30
2023-01-08T06:40:59.540Z,8.30
2023-01-08T06:43:36.327Z,8.20
2023-01-08T06:46:05.615Z,8.20
2023-01-08T06:48:33.465Z,8.10
2023-01-08T06:51:04.435Z,8.00
2023-01-08T06:53:32.002Z,8.00
2023-01-08T06:55:59.688Z,8.10
2023-01-08T06:58:28.467Z,8.10
2023-01-08T07:00:55.776Z,8.10
2023-01-08T07:03:22.913Z,8.00
2023-01-08T07:06:00.276Z,8.00
2023-01-08T07:08:30.788Z,8.10
2023-01-08T07:11:03.798Z,8.10
2023-01-08T07:13:31.098Z,8.00
2023-01-08T07:15:58.643Z,8.40
2023-01-08T07:18:25.815Z,8.30
2023-01-08T07:20:53.293Z,8.20
2023-01-08T07:23:29.360Z,8.40
2023-01-08T07:26:00.149Z,8.30
2023-01-08T07:28:28.218Z,8.30
2023-01-08T07:30:55.644Z,8.40
2023-01-08T07:33:23.278Z,8.40
2023-01-08T07:35:57.065Z,8.40
2023-01-08T07:38:24.345Z,8.60
2023-01-08T07:40:54.680Z,8.50
2023-01-08T07:43:22.015Z,8.50
2023-01-08T07:45:49.339Z,8.40
2023-01-08T07:48:18.874Z,8.60
2023-01-08T07:50:47.358Z,8.30
2023-01-08T07:53:18.010Z,8.40
2023-01-08T07:55:49.633Z,8.40
2023-01-08T07:58:18.010Z,8.40
2023-01-08T08:00:45.266Z,8.50
2023-01-08T08:03:13.893Z,8.60
2023-01-08T08:05:43.871Z,8.60
2023-01-08T08:08:15.571Z,8.80
2023-01-08T08:10:43.766Z,8.90
2023-01-08T08:13:13.609Z,9.00
2023-01-08T08:15:42.273Z,9.10
2023-01-08T08:18:14.647Z,9.10
2023-01-08T08:20:44.104Z,9.20
2023-01-08T08:23:15.295Z,9.30
2023-01-08T08:25:45.211Z,9.30
2023-01-08T08:28:13.224Z,9.30
2023-01-08T08:30:42.548Z,9.30
2023-01-08T08:33:11.937Z,9.40
2023-01-08T08:35:39.515Z,9.50
2023-01-08T08:38:09.005Z,9.50
2023-01-08T08:40:36.724Z,9.70
2023-01-08T08:43:05.513Z,9.80
2023-01-08T08:45:35.273Z,9.90
2023-01-08T08:48:07.065Z,9.90
2023-01-08T08:50:35.693Z,9.90
2023-01-08T08:53:06.964Z,9.90
2023-01-08T08:55:36.318Z,9.90
2023-01-08T08:58:13.759Z,10.00
2023-01-08T09:00:44.241Z,9.90
2023-01-08T09:03:15.913Z,9.80
2023-01-08T09:05:43.812Z,9.70
2023-01-08T09:08:12.056Z,9.70
2023-01-08T09:10:42.316Z,9.70
2023-01-08T09:13:16.863Z,9.70
2023-01-08T09:15:44.794Z,9.70
2023-01-08T09:18:15.761Z,9.80
2023-01-08T09:20:45.114Z,9.90
2023-01-08T09:23:13.405Z,10.10
2023-01-08T09:25:40.783Z,10.00
2023-01-08T09:28:13.057Z,9.80
2023-01-08T09:30:42.786Z,9.80
2023-01-08T09:33:11.261Z,9.70
2023-01-08T09:35:38.675Z,9.80
2023-01-08T09:38:06.102Z,9.90
2023-01-08T09:40:48.577Z,9.80
2023-01-08T09:43:18.161Z,9.80
2023-01-08T09:48:39.526Z,9.80
2023-01-08T09:51:15.413Z,9.70
2023-01-08T09:56:33.511Z,9.60
2023-01-08T09:59:02.747Z,9.50
2023-01-08T10:01:35.364Z,9.20
2023-01-08T10:04:37.163Z,9.20
2023-01-08T10:07:24.894Z,9.30
2023-01-08T10:10:26.924Z,9.50
2023-01-08T10:12:59.574Z,9.60
2023-01-08T10:15:30.053Z,9.60
2023-01-08T10:18:07.049Z,9.50
2023-01-08T10:20:34.623Z,9.50
2023-01-08T10:23:17.997Z,9.50
2023-01-08T10:25:54.039Z,9.50
2023-01-08T10:28:26.955Z,9.40
2023-01-08T10:30:59.563Z,9.40
2023-01-08T10:33:42.727Z,9.30
2023-01-08T10:36:19.436Z,9.30
2023-01-08T10:39:01.516Z,9.40
2023-01-08T10:41:40.094Z,9.60
2023-01-08T10:44:17.235Z,9.50
2023-01-08T10:46:49.466Z,9.60
2023-01-08T10:49:32.623Z,9.60
2023-01-08T10:52:01.085Z,9.60
2023-01-08T10:54:40.520Z,9.70
2023-01-08T10:57:29.642Z,9.70
2023-01-08T10:59:57.849Z,9.80
2023-01-08T11:02:32.409Z,9.90
2023-01-08T11:05:01.123Z,9.90
2023-01-08T11:07:29.457Z,10.10
2023-01-08T11:09:59.534Z,10.10
2023-01-08T11:12:41.764Z,10.20
2023-01-08T11:15:53.185Z,10.20
2023-01-08T11:18:25.704Z,10.20
2023-01-08T11:21:06.713Z,10.20
2023-01-08T11:23:34.278Z,10.30
2023-01-08T11:26:15.717Z,10.30
2023-01-08T11:29:01.403Z,10.40
2023-01-08T11:31:46.882Z,10.50
2023-01-08T11:34:21.055Z,10.40
2023-01-08T11:36:55.124Z,10.40
2023-01-08T11:39:31.830Z,10.50
2023-01-08T11:45:27.757Z,10.40
2023-01-08T11:48:07.635Z,10.40
2023-01-08T11:50:55.336Z,10.50
2023-01-08T11:53:43.535Z,10.60
2023-01-08T11:56:36.402Z,10.60
2023-01-08T11:59:32.349Z,10.60
2023-01-08T12:02:17.550Z,10.60
2023-01-08T12:05:00.114Z,10.70
2023-01-08T12:07:55.416Z,10.80
2023-01-08T12:10:31.521Z,10.80
2023-01-08T12:13:28.092Z,10.90
2023-01-08T12:16:24.327Z,10.80
2023-01-08T12:19:29.233Z,10.90
2023-01-08T12:21:59.235Z,10.90
2023-01-08T12:24:44.461Z,11.00
2023-01-08T12:27:21.720Z,11.00
2023-01-08T12:30:31.826Z,11.00
2023-01-08T12:33:03.986Z,11.10
2023-01-08T12:35:34.581Z,11.20
2023-01-08T12:38:06.500Z,11.20
2023-01-08T12:40:35.789Z,11.30
2023-01-08T12:43:10.844Z,11.30
2023-01-08T12:45:45.256Z,11.30
2023-01-08T12:48:24.495Z,11.30
2023-01-08T12:50:59.494Z,11.20
2023-01-08T12:53:35.005Z,11.10
2023-01-08T12:56:08.589Z,11.10
2023-01-08T12:58:55.874Z,11.20
2023-01-08T13:02:05.820Z,11.30
2023-01-08T13:04:44.801Z,11.50
2023-01-08T13:07:26.572Z,11.70
2023-01-08T13:10:06.020Z,11.70
2023-01-08T13:12:39.424Z,11.70
2023-01-08T13:15:08.217Z,11.70
2023-01-08T13:17:37.274Z,11.80
2023-01-08T13:20:06.891Z,11.70
2023-01-08T13:22:36.836Z,11.70
2023-01-08T13:25:27.811Z,11.70
2023-01-08T13:28:27.032Z,11.60
2023-01-08T13:30:55.860Z,11.50
2023-01-08T13:33:39.870Z,11.60
2023-01-08T13:36:12.842Z,11.80
2023-01-08T13:38:42.273Z,12.00
2023-01-08T13:41:38.853Z,12.20
2023-01-08T13:44:06.842Z,12.20
2023-01-08T13:46:37.965Z,12.00
2023-01-08T13:49:17.178Z,12.00
2023-01-08T13:51:46.033Z,12.10
2023-01-08T13:54:17.352Z,12.10
2023-01-08T13:56:47.013Z,12.10
2023-01-08T13:59:26.715Z,12.00
2023-01-08T14:01:57.352Z,11.90
2023-01-08T14:04:25.109Z,11.90
2023-01-08T14:06:52.411Z,11.90
2023-01-08T14:09:24.721Z,11.90
2023-01-08T14:11:57.925Z,11.90
2023-01-08T14:14:25.061Z,12.10
2023-01-08T14:16:53.459Z,12.40
2023-01-08T14:19:29.957Z,12.70
2023-01-08T14:22:03.776Z,12.70
2023-01-08T14:24:30.827Z,12.50
2023-01-08T14:26:59.732Z,12.50
2023-01-08T14:29:37.388Z,12.20
2023-01-08T14:32:16.883Z,12.00
2023-01-08T14:34:47.667Z,12.00
2023-01-08T14:37:16.428Z,12.00
2023-01-08T14:39:45.084Z,11.90
2023-01-08T14:42:42.476Z,11.90
2023-01-08T14:45:21.109Z,11.70
2023-01-08T14:47:51.024Z,11.70
2023-01-08T14:50:41.737Z,11.90
2023-01-08T14:53:16.498Z,12.00
2023-01-08T14:55:56.928Z,12.00
2023-01-08T14:58:26.938Z,12.40
2023-01-08T15:01:16.817Z,12.70
2023-01-08T15:03:49.244Z,12.90
2023-01-08T15:06:32.557Z,13.00
2023-01-08T15:09:02.675Z,12.90
2023-01-08T15:11:32.085Z,12.90
2023-01-08T15:13:59.463Z,12.90
2023-01-08T15:16:39.244Z,12.70
2023-01-08T15:19:30.092Z,12.70
2023-01-08T15:22:02.073Z,12.70
2023-01-08T15:24:39.660Z,12.50
2023-01-08T15:27:10.669Z,12.30
2023-01-08T15:30:03.863Z,12.00
2023-01-08T15:32:37.339Z,11.70
2023-01-08T15:35:16.489Z,11.50
2023-01-08T15:37:49.308Z,11.40
2023-01-08T15:40:18.973Z,11.10
2023-01-08T15:43:11.452Z,11.10
2023-01-08T15:45:40.967Z,11.00
2023-01-08T15:48:09.607Z,10.80
2023-01-08T15:50:39.955Z,10.70
2023-01-08T15:53:14.268Z,10.70
2023-01-08T15:55:43.698Z,10.70
2023-01-08T15:58:12.775Z,10.60
2023-01-08T16:00:42.505Z,10.60
2023-01-08T16:03:09.597Z,10.40
2023-01-08T16:05:36.962Z,10.30
2023-01-08T16:08:05.139Z,10.10
2023-01-08T16:10:32.827Z,10.10
2023-01-08T16:13:01.316Z,10.20
2023-01-08T16:15:30.887Z,10.20
2023-01-08T16:17:59.471Z,10.00
2023-01-08T16:20:26.905Z,10.00
2023-01-08T16:22:55.006Z,9.90
2023-01-08T16:25:22.160Z,9.90
2023-01-08T16:27:49.116Z,9.70
2023-01-08T16:30:16.646Z,9.50
2023-01-08T16:32:50.408Z,9.40
2023-01-08T16:35:18.526Z,9.30
2023-01-08T16:37:45.400Z,9.40
2023-01-08T16:40:13.010Z,9.30
2023-01-08T16:42:40.346Z,9.30
2023-01-08T16:45:08.544Z,9.30
2023-01-08T16:47:39.751Z,9.30
2023-01-08T16:50:09.047Z,9.40
2023-01-08T16:52:38.430Z,9.40
2023-01-08T16:55:06.643Z,9.50
2023-01-08T16:57:33.608Z,9.50
2023-01-08T17:00:00.878Z,9.40
2023-01-08T17:02:27.881Z,9.30
2023-01-08T17:04:54.808Z,9.20
2023-01-08T17:07:22.754Z,9.30
2023-01-08T17:09:49.760Z,9.30
2023-01-08T17:12:22.563Z,9.30
2023-01-08T17:14:50.823Z,9.30
2023-01-08T17:17:17.959Z,9.40
2023-01-08T17:19:44.968Z,9.40
2023-01-08T17:22:12.026Z,9.40
2023-01-08T17:24:39.140Z,9.00
2023-01-08T17:27:06.234Z,9.10
2023-01-08T17:29:33.240Z,9.20
2023-01-08T17:32:00.331Z,9.20
2023-01-08T17:34:27.593Z,9.20
2023-01-08T17:36:56.110Z,9.20
2023-01-08T17:39:23.116Z,9.30
2023-01-08T17:42:08.894Z,9.30
2023-01-08T17:44:36.032Z,9.30
2023-01-08T17:47:04.290Z,9.30
2023-01-08T17:49:31.419Z,9.30
2023-01-08T17:51:58.466Z,9.10
2023-01-08T17:54:25.549Z,9.10
2023-01-08T17:56:53.742Z,9.10
2023-01-08T17:59:21.311Z,9.00
2023-01-08T18:01:51.545Z,9.00
2023-01-08T18:04:18.742Z,9.00
2023-01-08T18:06:45.692Z,9.00
2023-01-08T18:09:13.144Z,8.90
2023-01-08T18:11:41.321Z,8.90
2023-01-08T18:14:11.098Z,8.80
2023-01-08T18:16:38.646Z,8.70
2023-01-08T18:19:06.941Z,8.60
2023-01-08T18:21:33.992Z,8.60
2023-01-08T18:24:00.926Z,8.70
2023-01-08T18:26:29.129Z,8.70
2023-01-08T18:28:56.162Z,8.80
2023-01-08T18:31:23.408Z,8.90
2023-01-08T18:33:54.179Z,8.90
2023-01-08T18:36:21.467Z,9.10
2023-01-08T18:38:49.359Z,8.90
2023-01-08T18:41:37.063Z,9.00
2023-01-08T18:44:06.631Z,9.30
2023-01-08T18:46:34.280Z,9.40
2023-01-08T18:49:02.079Z,9.50
2023-01-08T18:51:29.062Z,9.60
2023-01-08T18:53:56.271Z,9.70
2023-01-08T18:56:29.051Z,9.80
2023-01-08T18:58:56.455Z,9.90
2023-01-08T19:01:24.217Z,10.00
2023-01-08T19:03:51.614Z,10.10
2023-01-08T19:06:18.919Z,10.10
2023-01-08T19:08:46.345Z,10.20
2023-01-08T19:11:16.981Z,9.90
2023-01-08T19:13:44.096Z,10.00
2023-01-08T19:16:13.861Z,10.10
2023-01-08T19:18:41.108Z,10.00
2023-01-08T19:21:09.984Z,10.00
2023-01-08T19:23:37.010Z,10.10
2023-01-08T19:26:08.333Z,10.20
2023-01-08T19:28:36.433Z,10.40
2023-01-08T19:31:03.773Z,10.40
2023-01-08T19:33:30.659Z,10.40
2023-01-08T19:36:03.229Z,10.50
2023-01-08T19:38:30.181Z,10.50
2023-01-08T19:40:58.921Z,10.40
2023-01-08T19:43:44.005Z,10.30
2023-01-08T19:46:15.260Z,10.40
2023-01-08T19:48:44.076Z,10.40
2023-01-08T19:51:13.454Z,10.50
2023-01-08T19:53:41.169Z,10.70
2023-01-08T19:56:12.781Z,10.60
2023-01-08T19:58:39.852Z,10.90
2023-01-08T20:01:15.519Z,10.80
2023-01-08T20:03:44.197Z,10.80
2023-01-08T20:06:16.332Z,10.70
2023-01-08T20:08:46.068Z,10.70
2023-01-08T20:11:15.401Z,10.70
2023-01-08T20:13:42.831Z,10.60
2023-01-08T20:16:13.086Z,10.70
2023-01-08T20:18:40.121Z,10.50
2023-01-08T20:21:10.073Z,10.50
2023-01-08T20:23:38.311Z,10.50
2023-01-08T20:26:09.665Z,10.40
2023-01-08T20:28:38.917Z,10.40
2023-01-08T20:31:14.142Z,10.40
2023-01-08T20:33:42.013Z,10.40
2023-01-08T20:36:10.802Z,10.40
2023-01-08T20:38:39.684Z,10.20
2023-01-08T20:41:07.080Z,10.10
2023-01-08T20:43:35.608Z,10.10
2023-01-08T20:46:03.695Z,10.30
2023-01-08T20:48:34.372Z,10.30
2023-01-08T20:51:04.186Z,10.20
2023-01-08T20:53:34.785Z,10.20
2023-01-08T20:58:48.529Z,10.30
2023-01-08T21:01:18.675Z,10.40
2023-01-08T21:03:47.744Z,10.60
2023-01-08T21:06:21.378Z,10.50
2023-01-08T21:08:53.759Z,10.50
2023-01-08T21:11:21.711Z,10.50
2023-01-08T21:13:48.822Z,10.40
2023-01-08T21:16:22.789Z,10.50
2023-01-08T21:18:51.028Z,10.40
2023-01-08T21:21:24.321Z,10.10
2023-01-08T21:23:51.682Z,10.10
2023-01-08T21:26:19.596Z,10.10
2023-01-08T21:28:47.727Z,10.40
2023-01-08T21:31:18.451Z,10.10
2023-01-08T21:33:48.720Z,10.10
2023-01-08T21:36:44.305Z,10.00
2023-01-08T21:39:16.119Z,9.90
2023-01-08T21:42:01.747Z,10.10
2023-01-08T21:44:47.870Z,10.00
2023-01-08T21:47:18.911Z,10.00
2023-01-08T21:49:46.698Z,9.80
2023-01-08T21:52:34.782Z,9.70
2023-01-08T21:55:03.169Z,9.80
2023-01-08T21:57:32.072Z,9.90
2023-01-08T22:00:02.821Z,10.00
2023-01-08T22:02:33.417Z,10.20
2023-01-08T22:05:00.487Z,10.20
2023-01-08T22:07:27.451Z,10.00
2023-01-08T22:09:55.541Z,10.00
2023-01-08T22:12:25.345Z,10.00
2023-01-08T22:14:53.780Z,10.00
2023-01-08T22:17:21.354Z,9.90
2023-01-08T22:19:48.342Z,9.90
2023-01-08T22:22:15.295Z,10.00
2023-01-08T22:24:42.285Z,10.00
2023-01-08T22:27:09.989Z,10.00
2023-01-08T22:29:39.342Z,10.00
2023-01-08T22:32:06.331Z,9.80
2023-01-08T22:34:36.655Z,9.70
2023-01-08T22:37:03.964Z,9.60
2023-01-08T22:39:31.027Z,9.50
2023-01-08T22:41:58.328Z,9.40
2023-01-08T22:44:25.284Z,9.40
2023-01-08T22:46:52.223Z,9.40
2023-01-08T22:49:19.143Z,9.30
2023-01-08T22:51:46.174Z,9.10
2023-01-08T22:54:14.625Z,9.00
2023-01-08T22:56:42.763Z,9.00
2023-01-08T22:59:09.789Z,8.80
2023-01-08T23:01:36.913Z,8.80
2023-01-08T23:04:04.618Z,8.70
2023-01-08T23:06:32.840Z,8.70
2023-01-08T23:09:00.521Z,8.70
2023-01-08T23:11:27.744Z,8.70
2023-01-08T23:13:55.339Z,8.60
2023-01-08T23:16:25.315Z,8.60
2023-01-08T23:18:53.596Z,8.70
2023-01-08T23:21:24.124Z,8.60
2023-01-08T23:23:51.967Z,8.60
2023-01-08T23:26:22.609Z,8.60
2023-01-08T23:28:51.099Z,8.70
2023-01-08T23:31:24.277Z,8.60
2023-01-08T23:33:51.873Z,8.70
2023-01-08T23:36:21.205Z,8.60
2023-01-08T23:38:51.679Z,8.60
2023-01-08T23:41:20.452Z,8.70
2023-01-08T23:43:49.358Z,8.60
2023-01-08T23:46:17.343Z,8.50
2023-01-08T23:48:44.719Z,8.50
2023-01-08T23:51:11.920Z,8.50
2023-01-08T23:53:39.050Z,8.50
2023-01-08T23:56:06.353Z,8.40
2023-01-08T23:58:33.367Z,8.40
